Indio, CA (92203)

8:02 PM PDT on August 30, 2016 (GMT -0700)
SCSH Golf Course | | Change Station

Elev 20 ft 33.75 °N, 116.24 °W | Updated 7 seconds ago

Partly Cloudy
Partly Cloudy
98.6 °F
Feels Like 94 °F
N
0.0
Wind Variable Wind from North
Gusts 3.1 mph

Today
High -- | Low -- °F
--% Chance of Precip.
Yesterday
High -- | Low -- °F
Precip. -- in
Pressure 29.69 in
Visibility 10.0 miles
Clouds Few 12000 ft
Heat Index 94 °F
Dew Point 41 °F
Humidity 14%
Rainfall 0.00 in
Snow Depth Not available.
6:18 AM 7:12 PM
Waning Crescent, 2% visible
METAR KPSP 310253Z 31011KT 10SM FEW120 41/02 A2970 RMK AO2 SLP052 T04110022 53007
Pressure 29.69 in
Visibility 10.0 miles
Clouds Few 12000 ft
Heat Index 94 °F
Dew Point 41 °F
Humidity 14%
Rainfall 0.00 in
Snow Depth Not available.
6:18 AM 7:12 PM
Waning Crescent, 2% visible
METAR KPSP 310253Z 31011KT 10SM FEW120 41/02 A2970 RMK AO2 SLP052 T04110022 53007

10-Day Weather Forecast

Almanac

Astronomy

Aug. 30, 2016 Rise Set
Actual Time
Civil Twilight
Nautical Twilight
Astronomical Twilight
Moon
Length of Visible Light
Length of Day
Tomorrow will be .
, % of the Moon is Illuminated

Today's Extremes

State Highs State Lows

Community

WunderPhotos

Upload Photos

1,936,006 photos uploaded!

WunderBlog® & News

Nearby

Air Quality

  Air Quality AQ Index Pollutant
Not available.

Snow Depth

Station Depth Elevation

Earthquake Activity

City Distance Mag. Time & Date
Minimum magnitude displayed is 2.5.

Coastal Water Temperatures

Place Temperature

Stations

Nearby Weather Stations

Station Location Temp. Windchill Dew Point Humidity Wind Precip. Elev Updated Type
                   

Watches & Warnings

There are currently no watches in effect.